createdAt,value
2017-09-20T00:01:01.059Z,4.00
2017-09-20T00:03:29.511Z,4.20
2017-09-20T00:05:58.755Z,3.80
2017-09-20T00:08:27.243Z,3.90
2017-09-20T00:10:55.759Z,4.10
2017-09-20T00:13:24.995Z,4.17
2017-09-20T00:15:53.458Z,4.10
2017-09-20T00:18:23.020Z,4.60
2017-09-20T00:20:51.469Z,4.97
2017-09-20T00:23:19.947Z,4.60
2017-09-20T00:25:49.168Z,4.40
2017-09-20T00:28:17.644Z,4.30
2017-09-20T00:30:46.338Z,4.23
2017-09-20T00:33:14.795Z,3.73
2017-09-20T00:35:44.032Z,3.80
2017-09-20T00:38:12.246Z,4.40
2017-09-20T00:40:40.551Z,4.40
2017-09-20T00:43:09.560Z,4.10
2017-09-20T00:45:38.031Z,4.20
2017-09-20T00:48:06.491Z,4.00
2017-09-20T00:50:35.735Z,3.87
2017-09-20T00:53:03.860Z,4.30
2017-09-20T00:55:31.983Z,4.40
2017-09-20T00:57:59.775Z,4.47
2017-09-20T01:00:27.875Z,3.80
2017-09-20T01:02:56.348Z,4.30
2017-09-20T01:05:24.807Z,4.40
2017-09-20T01:07:53.267Z,4.37
2017-09-20T01:10:21.727Z,4.20
2017-09-20T01:12:50.199Z,3.63
2017-09-20T01:15:19.146Z,4.73
2017-09-20T01:17:47.644Z,4.27
2017-09-20T01:20:27.351Z,4.83
2017-09-20T01:23:17.909Z,4.33
2017-09-20T01:25:46.047Z,4.43
2017-09-20T01:28:13.819Z,4.77
2017-09-20T01:30:42.292Z,4.33
2017-09-20T01:33:10.757Z,5.20
2017-09-20T01:35:39.235Z,4.17
2017-09-20T01:38:07.344Z,4.90
2017-09-20T01:40:35.467Z,4.50
2017-09-20T01:43:03.939Z,4.77
2017-09-20T01:45:33.165Z,5.53
2017-09-20T01:48:01.636Z,5.47
2017-09-20T01:50:30.144Z,4.67
2017-09-20T01:52:58.608Z,5.03
2017-09-20T01:55:27.104Z,4.60
2017-09-20T01:57:55.580Z,5.17
2017-09-20T02:00:24.397Z,4.70
2017-09-20T02:02:52.879Z,4.60
2017-09-20T02:05:21.339Z,5.03
2017-09-20T02:07:49.815Z,5.20
2017-09-20T02:10:18.091Z,4.70
2017-09-20T02:12:46.563Z,4.57
2017-09-20T02:15:15.131Z,4.57
2017-09-20T02:17:44.404Z,5.50
2017-09-20T02:20:13.056Z,4.80
2017-09-20T02:22:41.511Z,4.77
2017-09-20T02:25:09.978Z,5.30
2017-09-20T02:27:39.199Z,5.53
2017-09-20T02:30:07.663Z,5.83
2017-09-20T02:32:36.910Z,5.50
2017-09-20T02:35:05.373Z,5.60
2017-09-20T02:37:33.500Z,6.40
2017-09-20T02:40:01.944Z,7.00
2017-09-20T02:42:30.408Z,7.50
2017-09-20T02:44:58.502Z,7.03
2017-09-20T02:47:26.988Z,6.90
2017-09-20T02:49:55.436Z,6.60
2017-09-20T02:52:23.971Z,5.43
2017-09-20T02:54:52.455Z,7.23
2017-09-20T02:57:20.911Z,7.70
2017-09-20T02:59:49.035Z,7.57
2017-09-20T03:02:17.899Z,6.80
2017-09-20T03:04:46.387Z,6.90
2017-09-20T03:07:14.839Z,6.53
2017-09-20T03:09:43.296Z,7.20
2017-09-20T03:12:11.760Z,6.97
2017-09-20T03:14:41.108Z,7.97
2017-09-20T03:17:09.586Z,7.40
2017-09-20T03:19:38.064Z,7.13
2017-09-20T03:22:06.595Z,7.90
2017-09-20T03:24:35.816Z,7.10
2017-09-20T03:27:05.059Z,7.10
2017-09-20T03:29:33.520Z,9.00
2017-09-20T03:32:02.092Z,8.40
2017-09-20T03:34:30.572Z,8.30
2017-09-20T03:36:59.044Z,8.67
2017-09-20T03:39:28.292Z,8.13
2017-09-20T03:41:56.871Z,8.50
2017-09-20T03:44:25.340Z,8.80
2017-09-20T03:46:53.800Z,7.67
2017-09-20T03:49:23.212Z,9.10
2017-09-20T03:51:51.688Z,7.70
2017-09-20T03:54:20.916Z,8.20
2017-09-20T03:56:49.387Z,7.53
2017-09-20T03:59:17.835Z,8.30
2017-09-20T04:01:47.082Z,8.27
2017-09-20T04:04:15.535Z,9.10
2017-09-20T04:06:44.896Z,9.40
2017-09-20T04:09:13.454Z,7.93
2017-09-20T04:11:41.941Z,9.20
2017-09-20T04:14:10.520Z,8.70
2017-09-20T04:16:38.988Z,9.20
2017-09-20T04:19:07.459Z,9.00
2017-09-20T04:21:36.015Z,8.60
2017-09-20T04:24:04.502Z,9.73
2017-09-20T04:26:33.727Z,9.33
2017-09-20T04:29:02.281Z,9.40
2017-09-20T04:31:32.263Z,9.30
2017-09-20T04:34:00.738Z,10.10
2017-09-20T04:36:29.196Z,9.57
2017-09-20T04:38:58.908Z,10.50
2017-09-20T04:41:27.372Z,10.80
2017-09-20T04:43:56.434Z,9.90
2017-09-20T04:46:24.917Z,9.80
2017-09-20T04:48:53.391Z,10.57
2017-09-20T04:51:21.851Z,11.10
2017-09-20T04:53:50.330Z,10.60
2017-09-20T04:56:18.816Z,11.33
2017-09-20T04:58:47.272Z,12.17
2017-09-20T05:01:15.752Z,10.93
2017-09-20T05:03:44.977Z,10.50
2017-09-20T05:06:13.462Z,11.07
2017-09-20T05:08:41.931Z,11.47
2017-09-20T05:11:10.482Z,11.23
2017-09-20T05:13:39.712Z,11.10
2017-09-20T05:16:08.191Z,10.60
2017-09-20T05:18:36.858Z,11.13
2017-09-20T05:21:05.667Z,10.23
2017-09-20T05:23:34.139Z,10.60
2017-09-20T05:26:02.696Z,10.67
2017-09-20T05:28:32.682Z,10.80
2017-09-20T05:31:00.966Z,10.23
2017-09-20T05:33:29.267Z,10.90
2017-09-20T05:35:58.487Z,11.33
2017-09-20T05:38:27.557Z,12.00
2017-09-20T05:40:56.044Z,12.30
2017-09-20T05:43:26.016Z,10.43
2017-09-20T05:45:54.483Z,11.30
2017-09-20T05:48:22.951Z,11.50
2017-09-20T05:50:52.179Z,11.20
2017-09-20T05:53:20.662Z,10.10
2017-09-20T05:55:49.136Z,12.27
2017-09-20T05:58:17.604Z,11.93
2017-09-20T06:00:46.848Z,12.20
2017-09-20T06:03:15.303Z,13.07
2017-09-20T06:05:43.772Z,13.73
2017-09-20T06:08:13.001Z,11.00
2017-09-20T06:10:41.607Z,11.20
2017-09-20T06:13:10.071Z,12.90
2017-09-20T06:15:38.552Z,13.03
2017-09-20T06:18:07.127Z,13.53
2017-09-20T06:20:35.599Z,12.40
2017-09-20T06:23:04.092Z,12.70
2017-09-20T06:25:32.736Z,12.83
2017-09-20T06:28:01.223Z,12.00
2017-09-20T06:30:30.474Z,11.97
2017-09-20T06:32:58.951Z,12.90
2017-09-20T06:35:27.414Z,12.77
2017-09-20T06:37:55.883Z,11.80
2017-09-20T06:40:25.132Z,10.83
2017-09-20T06:42:53.604Z,11.97
2017-09-20T06:45:22.211Z,12.33
2017-09-20T06:47:50.674Z,12.77
2017-09-20T06:50:19.359Z,11.10
2017-09-20T06:52:47.851Z,11.20
2017-09-20T06:55:16.315Z,11.53
2017-09-20T06:57:44.807Z,10.80
2017-09-20T07:00:13.055Z,11.20
2017-09-20T07:02:41.615Z,9.53
2017-09-20T07:05:10.849Z,11.20
2017-09-20T07:07:39.415Z,11.07
2017-09-20T07:10:08.667Z,10.93
2017-09-20T07:12:37.152Z,9.20
2017-09-20T07:15:05.707Z,10.47
2017-09-20T07:17:34.181Z,9.57
2017-09-20T07:20:02.639Z,9.30
2017-09-20T07:22:31.899Z,9.17
2017-09-20T07:25:00.371Z,10.27
2017-09-20T07:27:28.926Z,10.43
2017-09-20T07:29:57.403Z,11.43
2017-09-20T07:32:25.859Z,11.07
2017-09-20T07:34:54.339Z,12.67
2017-09-20T07:37:22.929Z,11.10
2017-09-20T07:39:51.414Z,11.73
2017-09-20T07:42:19.868Z,11.17
2017-09-20T07:44:48.351Z,11.83
2017-09-20T07:47:16.840Z,11.70
2017-09-20T07:49:45.298Z,10.30
2017-09-20T07:52:13.776Z,10.67
2017-09-20T07:54:42.244Z,10.23
2017-09-20T07:57:10.746Z,10.30
2017-09-20T07:59:39.246Z,9.70
2017-09-20T08:02:07.708Z,8.30
2017-09-20T08:04:36.184Z,8.50
2017-09-20T08:07:04.632Z,8.73
2017-09-20T08:09:33.856Z,8.40
2017-09-20T08:12:02.332Z,9.17
2017-09-20T08:14:30.796Z,9.63
2017-09-20T08:17:00.051Z,10.23
2017-09-20T08:19:28.549Z,10.03
2017-09-20T08:21:57.282Z,10.20
2017-09-20T08:24:25.739Z,10.27
2017-09-20T08:26:54.959Z,10.00
2017-09-20T08:29:23.449Z,10.33
2017-09-20T08:31:51.915Z,9.50
2017-09-20T08:34:21.137Z,9.80
2017-09-20T08:36:49.654Z,10.87
2017-09-20T08:39:17.956Z,10.90
2017-09-20T08:41:46.444Z,9.80
2017-09-20T08:44:15.691Z,10.33
2017-09-20T08:46:44.144Z,8.47
2017-09-20T08:49:13.390Z,9.17
2017-09-20T08:51:41.843Z,8.87
2017-09-20T08:54:10.331Z,9.50
2017-09-20T08:56:38.792Z,10.10
2017-09-20T08:59:08.031Z,9.47
2017-09-20T09:01:36.505Z,9.73
2017-09-20T09:04:04.990Z,9.70
2017-09-20T09:06:33.499Z,9.73
2017-09-20T09:09:02.045Z,9.90
2017-09-20T09:11:30.351Z,9.40
2017-09-20T09:13:58.622Z,9.10
2017-09-20T09:16:27.103Z,9.63
2017-09-20T09:18:55.652Z,10.80
2017-09-20T09:21:24.135Z,9.27
2017-09-20T09:23:52.615Z,9.60
2017-09-20T09:26:21.162Z,9.27
2017-09-20T09:28:49.680Z,9.20
2017-09-20T09:31:18.151Z,10.93
2017-09-20T09:33:47.401Z,10.87
2017-09-20T09:36:15.882Z,10.10
2017-09-20T09:38:44.361Z,10.43
2017-09-20T09:41:12.820Z,9.83
2017-09-20T09:43:41.136Z,9.67
2017-09-20T09:46:09.647Z,9.33
2017-09-20T09:48:38.127Z,9.57
2017-09-20T09:51:06.591Z,9.00
2017-09-20T09:53:35.076Z,9.23
2017-09-20T09:56:03.547Z,7.47
2017-09-20T09:58:32.007Z,8.57
2017-09-20T10:01:00.493Z,8.90
2017-09-20T10:03:28.963Z,7.73
2017-09-20T10:05:57.260Z,7.33
2017-09-20T10:08:25.728Z,7.63
2017-09-20T10:10:54.206Z,8.20
2017-09-20T10:13:22.700Z,7.40
2017-09-20T10:15:51.229Z,6.50
2017-09-20T10:18:19.699Z,6.37
2017-09-20T10:20:48.168Z,6.07
2017-09-20T10:23:16.624Z,6.90
2017-09-20T10:25:45.192Z,6.90
2017-09-20T10:28:13.651Z,7.53
2017-09-20T10:30:42.877Z,7.90
2017-09-20T10:33:11.361Z,6.80
2017-09-20T10:35:39.855Z,7.37
2017-09-20T10:38:08.313Z,7.30
2017-09-20T10:40:37.627Z,7.80
2017-09-20T10:43:06.117Z,7.60
2017-09-20T10:45:34.604Z,7.97
2017-09-20T10:48:03.096Z,8.67
2017-09-20T10:50:31.464Z,7.97
2017-09-20T10:52:59.955Z,7.57
2017-09-20T10:55:28.436Z,8.07
2017-09-20T10:57:56.891Z,7.60
2017-09-20T11:00:26.119Z,8.73
2017-09-20T11:02:54.607Z,10.83
2017-09-20T11:05:23.076Z,10.60
2017-09-20T11:07:51.602Z,11.13
2017-09-20T11:10:20.069Z,11.03
2017-09-20T11:12:48.531Z,10.60
2017-09-20T11:15:17.012Z,11.17
2017-09-20T11:17:46.301Z,8.67
2017-09-20T11:20:14.771Z,8.70
2017-09-20T11:22:43.247Z,7.83
2017-09-20T11:25:12.482Z,8.50
2017-09-20T11:27:40.971Z,6.43
2017-09-20T11:30:09.433Z,5.87
2017-09-20T11:32:37.931Z,5.93
2017-09-20T11:35:06.423Z,5.90
2017-09-20T11:37:34.877Z,5.40
2017-09-20T11:40:03.396Z,6.67
2017-09-20T11:42:31.920Z,7.10
2017-09-20T11:45:01.149Z,7.90
2017-09-20T11:47:29.637Z,8.37
2017-09-20T11:49:58.103Z,7.53
2017-09-20T11:52:26.571Z,6.73
2017-09-20T11:54:55.812Z,6.43
2017-09-20T11:57:24.291Z,7.17
2017-09-20T11:59:52.749Z,8.43
2017-09-20T12:02:21.250Z,6.50
2017-09-20T12:04:49.702Z,6.70
2017-09-20T12:07:18.939Z,6.90
2017-09-20T12:09:47.492Z,7.60
2017-09-20T12:12:15.984Z,7.53
2017-09-20T12:14:44.285Z,7.83
2017-09-20T12:17:12.760Z,8.30
2017-09-20T12:19:41.218Z,9.37
2017-09-20T12:22:09.760Z,10.57
2017-09-20T12:24:38.231Z,8.30
2017-09-20T12:27:06.731Z,7.60
2017-09-20T12:29:35.192Z,8.13
2017-09-20T12:32:03.674Z,7.50
2017-09-20T12:34:32.144Z,8.87
2017-09-20T12:37:00.615Z,8.70
2017-09-20T12:39:29.076Z,9.00
2017-09-20T12:41:58.630Z,9.30
2017-09-20T12:44:27.101Z,8.50
2017-09-20T12:46:55.559Z,8.33
2017-09-20T12:49:24.071Z,9.47
2017-09-20T12:51:52.539Z,9.30
2017-09-20T12:54:21.172Z,7.80
2017-09-20T12:56:49.827Z,8.40
2017-09-20T12:59:18.335Z,8.43
2017-09-20T13:01:46.812Z,7.63
2017-09-20T13:04:15.278Z,7.77
2017-09-20T13:06:43.791Z,7.80
2017-09-20T13:09:12.263Z,10.27
2017-09-20T13:11:42.254Z,9.03
2017-09-20T13:14:10.763Z,10.00
2017-09-20T13:16:39.253Z,11.03
2017-09-20T13:19:07.884Z,10.87
2017-09-20T13:21:36.379Z,11.10
2017-09-20T13:24:04.868Z,10.60
2017-09-20T13:26:33.338Z,10.33
2017-09-20T13:29:01.984Z,11.33
2017-09-20T13:31:30.734Z,11.10
2017-09-20T13:33:59.208Z,11.10
2017-09-20T13:36:27.914Z,11.10
2017-09-20T13:38:56.384Z,12.30
2017-09-20T13:41:24.875Z,12.60
2017-09-20T13:43:54.444Z,12.83
2017-09-20T13:46:23.035Z,11.80
2017-09-20T13:48:51.520Z,12.23
2017-09-20T13:51:20.021Z,11.73
2017-09-20T13:53:48.510Z,10.77
2017-09-20T13:56:17.135Z,11.80
2017-09-20T13:58:46.375Z,9.93
2017-09-20T14:01:14.860Z,9.30
2017-09-20T14:03:43.305Z,8.57
2017-09-20T14:06:12.568Z,10.20
2017-09-20T14:08:41.094Z,9.00
2017-09-20T14:11:10.328Z,9.20
2017-09-20T14:13:38.808Z,9.53
2017-09-20T14:16:07.275Z,10.40
2017-09-20T14:18:35.787Z,9.67
2017-09-20T14:21:04.288Z,10.90
2017-09-20T14:23:32.758Z,10.13
2017-09-20T14:26:03.772Z,9.77
2017-09-20T14:28:32.248Z,10.03
2017-09-20T14:31:00.755Z,9.67
2017-09-20T14:33:29.303Z,9.30
2017-09-20T14:35:58.551Z,10.00
2017-09-20T14:38:27.031Z,9.27
2017-09-20T14:40:55.324Z,10.90
2017-09-20T14:43:23.979Z,9.97
2017-09-20T14:45:52.271Z,9.83
2017-09-20T14:48:20.743Z,8.90
2017-09-20T14:50:49.223Z,9.50
2017-09-20T14:53:17.619Z,8.80
2017-09-20T14:55:46.200Z,8.40
2017-09-20T14:58:14.683Z,9.07
2017-09-20T15:00:43.199Z,9.47
2017-09-20T15:03:12.436Z,9.17
2017-09-20T15:05:40.928Z,8.60
2017-09-20T15:08:09.388Z,7.90
2017-09-20T15:10:37.703Z,7.33
2017-09-20T15:13:06.184Z,7.60
2017-09-20T15:15:34.456Z,7.00
2017-09-20T15:18:02.932Z,7.87
2017-09-20T15:20:31.413Z,7.13
2017-09-20T15:22:59.880Z,6.73
2017-09-20T15:25:28.362Z,6.33
2017-09-20T15:27:56.866Z,6.83
2017-09-20T15:30:25.371Z,5.97
2017-09-20T15:32:53.831Z,6.57
2017-09-20T15:35:22.311Z,6.90
2017-09-20T15:37:50.794Z,6.63
2017-09-20T15:40:19.263Z,8.03
2017-09-20T15:42:47.752Z,7.67
2017-09-20T15:45:16.251Z,7.20
2017-09-20T15:47:44.744Z,7.00
2017-09-20T15:50:13.240Z,9.60
2017-09-20T15:52:41.723Z,8.83
2017-09-20T15:55:10.292Z,7.97
2017-09-20T15:57:38.756Z,7.23
2017-09-20T16:00:07.582Z,8.07
2017-09-20T16:02:36.052Z,6.37
2017-09-20T16:05:04.327Z,7.03
2017-09-20T16:07:32.912Z,6.67
2017-09-20T16:10:01.374Z,6.80
2017-09-20T16:12:29.679Z,6.47
2017-09-20T16:14:58.148Z,7.07
2017-09-20T16:17:26.634Z,6.43
2017-09-20T16:19:55.116Z,6.80
2017-09-20T16:22:23.583Z,6.07
2017-09-20T16:24:52.932Z,6.03
2017-09-20T16:27:21.442Z,6.97
2017-09-20T16:29:49.913Z,5.87
2017-09-20T16:32:19.264Z,6.53
2017-09-20T16:34:47.738Z,6.23
2017-09-20T16:37:16.235Z,7.83
2017-09-20T16:39:44.712Z,6.70
2017-09-20T16:42:13.192Z,7.20
2017-09-20T16:44:41.679Z,5.73
2017-09-20T16:47:10.180Z,6.40
2017-09-20T16:49:38.651Z,6.53
2017-09-20T16:52:07.172Z,5.93
2017-09-20T16:54:36.485Z,5.27
2017-09-20T16:57:05.825Z,6.00
2017-09-20T16:59:34.301Z,6.40
2017-09-20T17:02:02.095Z,5.87
2017-09-20T17:04:30.604Z,7.17
2017-09-20T17:06:59.096Z,8.00
2017-09-20T17:09:27.627Z,7.90
2017-09-20T17:11:56.095Z,8.40
2017-09-20T17:14:24.551Z,8.50
2017-09-20T17:16:53.808Z,9.20
2017-09-20T17:19:22.293Z,10.37
2017-09-20T17:21:50.779Z,10.20
2017-09-20T17:24:19.244Z,9.87
2017-09-20T17:26:47.865Z,10.90
2017-09-20T17:29:17.379Z,11.77
2017-09-20T17:31:46.651Z,10.07
2017-09-20T17:34:15.163Z,9.63
2017-09-20T17:36:44.393Z,9.37
2017-09-20T17:39:12.883Z,10.83
2017-09-20T17:41:41.373Z,11.47
2017-09-20T17:44:09.687Z,10.93
2017-09-20T17:46:38.727Z,10.77
2017-09-20T17:49:07.047Z,11.70
2017-09-20T17:51:35.523Z,12.37
2017-09-20T17:54:04.035Z,12.30
2017-09-20T17:56:32.504Z,13.63
2017-09-20T17:59:00.980Z,11.77
2017-09-20T18:01:29.475Z,12.00
2017-09-20T18:03:57.947Z,11.97
2017-09-20T18:06:26.602Z,12.40
2017-09-20T18:08:55.079Z,12.60
2017-09-20T18:11:23.560Z,12.00
2017-09-20T18:13:52.051Z,11.33
2017-09-20T18:16:20.630Z,13.27
2017-09-20T18:18:48.920Z,13.00
2017-09-20T18:21:17.443Z,15.00
2017-09-20T18:23:45.739Z,14.90
2017-09-20T18:26:14.975Z,11.87
2017-09-20T18:28:43.459Z,13.57
2017-09-20T18:31:11.934Z,13.87
2017-09-20T18:33:40.430Z,13.20
2017-09-20T18:36:08.917Z,13.20
2017-09-20T18:38:37.411Z,13.10
2017-09-20T18:41:06.036Z,12.00
2017-09-20T18:43:35.285Z,12.80
2017-09-20T18:46:03.655Z,11.30
2017-09-20T18:48:31.953Z,12.27
2017-09-20T18:51:00.281Z,14.10
2017-09-20T18:53:29.568Z,13.13
2017-09-20T18:55:58.925Z,12.80
2017-09-20T18:58:27.399Z,13.13
2017-09-20T19:00:55.898Z,12.93
2017-09-20T19:03:24.538Z,13.70
2017-09-20T19:05:53.771Z,12.57
2017-09-20T19:08:22.273Z,13.00
2017-09-20T19:10:50.826Z,14.30
2017-09-20T19:13:19.381Z,13.40
2017-09-20T19:15:48.629Z,12.50
2017-09-20T19:18:17.111Z,12.43
2017-09-20T19:20:45.595Z,12.83
2017-09-20T19:23:14.183Z,14.50
2017-09-20T19:25:42.646Z,16.00
2017-09-20T19:28:11.128Z,14.43
2017-09-20T19:30:39.636Z,15.60
2017-09-20T19:33:08.159Z,14.30
2017-09-20T19:35:37.410Z,13.07
2017-09-20T19:38:05.994Z,14.00
2017-09-20T19:40:34.692Z,13.30
2017-09-20T19:43:03.171Z,13.67
2017-09-20T19:45:31.480Z,13.77
2017-09-20T19:48:00.749Z,13.40
2017-09-20T19:50:29.260Z,15.17
2017-09-20T19:52:57.743Z,12.87
2017-09-20T19:55:26.248Z,12.97
2017-09-20T19:57:55.648Z,13.50
2017-09-20T20:00:24.895Z,13.83
2017-09-20T20:02:53.300Z,15.90
2017-09-20T20:05:21.863Z,16.10
2017-09-20T20:07:50.428Z,16.63
2017-09-20T20:10:18.945Z,18.57
2017-09-20T20:12:47.452Z,17.10
2017-09-20T20:15:16.705Z,16.40
2017-09-20T20:17:45.196Z,18.03
2017-09-20T20:20:13.488Z,17.77
2017-09-20T20:22:41.829Z,16.27
2017-09-20T20:25:10.152Z,15.20
2017-09-20T20:27:38.726Z,16.03
2017-09-20T20:30:06.863Z,15.57
2017-09-20T20:32:35.341Z,16.23
2017-09-20T20:35:03.849Z,14.67
2017-09-20T20:37:32.341Z,16.47
2017-09-20T20:40:00.825Z,16.93
2017-09-20T20:42:29.299Z,15.90
2017-09-20T20:44:57.759Z,13.97
2017-09-20T20:47:26.256Z,14.33
2017-09-20T20:49:54.740Z,14.33
2017-09-20T20:52:23.227Z,16.10
2017-09-20T20:54:51.720Z,18.40
2017-09-20T20:57:20.235Z,14.57
2017-09-20T20:59:49.484Z,15.40
2017-09-20T21:02:17.996Z,14.97
2017-09-20T21:04:46.477Z,15.20
2017-09-20T21:07:14.979Z,15.60
2017-09-20T21:09:43.459Z,15.00
2017-09-20T21:12:11.936Z,13.17
2017-09-20T21:14:40.407Z,13.60
2017-09-20T21:17:08.923Z,14.83
2017-09-20T21:19:38.168Z,15.23
2017-09-20T21:22:06.644Z,16.47
2017-09-20T21:24:35.144Z,17.47
2017-09-20T21:27:03.621Z,16.67
2017-09-20T21:29:32.089Z,17.33
2017-09-20T21:32:00.575Z,18.00
2017-09-20T21:34:29.031Z,18.43
2017-09-20T21:36:58.292Z,17.43
2017-09-20T21:39:26.771Z,17.23
2017-09-20T21:41:55.260Z,15.67
2017-09-20T21:44:24.764Z,15.57
2017-09-20T21:46:53.239Z,15.03
2017-09-20T21:49:21.715Z,15.00
2017-09-20T21:51:50.223Z,15.83
2017-09-20T21:54:18.523Z,15.00
2017-09-20T21:56:47.771Z,15.20
2017-09-20T21:59:16.079Z,16.60
2017-09-20T22:01:44.546Z,15.50
2017-09-20T22:04:13.035Z,16.37
2017-09-20T22:06:41.501Z,15.80
2017-09-20T22:09:09.971Z,16.50
2017-09-20T22:11:38.470Z,16.90
2017-09-20T22:14:06.931Z,18.00
2017-09-20T22:16:46.627Z,16.53
2017-09-20T22:19:27.183Z,16.93
2017-09-20T22:22:06.997Z,17.50
2017-09-20T22:24:46.699Z,18.50
2017-09-20T22:27:27.271Z,18.07
2017-09-20T22:29:56.617Z,17.47
2017-09-20T22:32:25.099Z,16.33
2017-09-20T22:34:53.571Z,17.33
2017-09-20T22:37:22.047Z,17.00
2017-09-20T22:39:51.459Z,16.97
2017-09-20T22:42:19.943Z,16.27
2017-09-20T22:44:48.446Z,15.37
2017-09-20T22:47:17.008Z,16.10
2017-09-20T22:49:45.455Z,16.30
2017-09-20T22:52:14.683Z,16.13
2017-09-20T22:54:43.164Z,15.03
2017-09-20T22:57:11.671Z,16.07
2017-09-20T22:59:40.135Z,15.80
2017-09-20T23:02:08.634Z,16.50
2017-09-20T23:04:37.093Z,17.40
2017-09-20T23:07:05.692Z,16.07
2017-09-20T23:09:34.152Z,15.20
2017-09-20T23:12:02.636Z,15.93
2017-09-20T23:14:31.107Z,16.03
2017-09-20T23:17:00.345Z,14.77
2017-09-20T23:19:28.814Z,14.57
2017-09-20T23:21:57.291Z,16.43
2017-09-20T23:24:25.574Z,16.37
2017-09-20T23:26:54.963Z,16.13
2017-09-20T23:29:23.439Z,15.70
2017-09-20T23:31:51.911Z,15.80
2017-09-20T23:34:21.167Z,18.17
2017-09-20T23:36:49.627Z,19.63
2017-09-20T23:39:18.195Z,18.10
2017-09-20T23:41:46.647Z,17.83
2017-09-20T23:44:15.887Z,17.50
2017-09-20T23:46:44.350Z,17.47
2017-09-20T23:49:12.983Z,16.50
2017-09-20T23:51:41.479Z,17.40
2017-09-20T23:54:09.959Z,16.80
2017-09-20T23:56:38.457Z,17.60
2017-09-20T23:59:06.747Z,19.60
